createdAt,value
2023-04-17T00:01:27.864Z,9.50
2023-04-17T00:03:54.729Z,9.50
2023-04-17T00:06:21.735Z,9.50
2023-04-17T00:08:48.521Z,9.50
2023-04-17T00:11:17.991Z,9.50
2023-04-17T00:13:45.680Z,9.50
2023-04-17T00:16:13.749Z,9.40
2023-04-17T00:18:40.760Z,9.50
2023-04-17T00:21:07.544Z,9.40
2023-04-17T00:23:34.296Z,9.50
2023-04-17T00:26:01.116Z,9.50
2023-04-17T00:28:27.897Z,9.40
2023-04-17T00:30:54.665Z,9.40
2023-04-17T00:33:21.448Z,9.40
2023-04-17T00:35:48.249Z,9.40
2023-04-17T00:38:15.013Z,9.40
2023-04-17T00:40:42.158Z,9.30
2023-04-17T00:43:08.953Z,9.30
2023-04-17T00:45:35.771Z,9.40
2023-04-17T00:48:04.531Z,9.30
2023-04-17T00:50:31.599Z,9.40
2023-04-17T00:52:58.674Z,9.40
2023-04-17T00:55:26.591Z,9.30
2023-04-17T00:57:53.427Z,9.40
2023-04-17T01:00:20.256Z,9.30
2023-04-17T01:02:47.312Z,9.30
2023-04-17T01:05:14.594Z,9.30
2023-04-17T01:07:43.096Z,9.30
2023-04-17T01:10:10.356Z,9.30
2023-04-17T01:12:37.232Z,9.40
2023-04-17T01:15:04.945Z,9.30
2023-04-17T01:17:32.193Z,9.30
2023-04-17T01:19:59.161Z,9.30
2023-04-17T01:22:25.933Z,9.30
2023-04-17T01:24:52.747Z,9.30
2023-04-17T01:27:22.509Z,9.30
2023-04-17T01:29:51.789Z,9.30
2023-04-17T01:32:18.980Z,9.30
2023-04-17T01:34:45.851Z,9.20
2023-04-17T01:37:12.613Z,9.20
2023-04-17T01:39:40.363Z,9.20
2023-04-17T01:42:07.128Z,9.20
2023-04-17T01:44:34.009Z,9.20
2023-04-17T01:47:02.620Z,9.20
2023-04-17T01:49:29.552Z,9.20
2023-04-17T01:51:56.264Z,9.20
2023-04-17T01:54:24.905Z,9.20
2023-04-17T01:56:51.692Z,9.20
2023-04-17T01:59:18.526Z,9.20
2023-04-17T02:01:45.427Z,9.20
2023-04-17T02:04:12.323Z,9.20
2023-04-17T02:06:39.149Z,9.20
2023-04-17T02:09:06.184Z,9.20
2023-04-17T02:11:33.036Z,9.20
2023-04-17T02:13:59.815Z,9.20
2023-04-17T02:16:28.861Z,9.20
2023-04-17T02:18:55.776Z,9.10
2023-04-17T02:21:22.515Z,9.10
2023-04-17T02:23:49.315Z,9.20
2023-04-17T02:26:16.082Z,9.10
2023-04-17T02:28:46.127Z,9.20
2023-04-17T02:31:13.249Z,9.10
2023-04-17T02:33:40.038Z,9.10
2023-04-17T02:36:07.149Z,9.10
2023-04-17T02:38:34.180Z,9.10
2023-04-17T02:41:00.963Z,9.10
2023-04-17T02:43:27.674Z,9.10
2023-04-17T02:45:54.441Z,9.10
2023-04-17T02:48:21.282Z,9.10
2023-04-17T02:50:48.576Z,9.10
2023-04-17T02:53:15.718Z,9.10
2023-04-17T02:55:42.469Z,9.10
2023-04-17T02:58:09.217Z,9.10
2023-04-17T03:00:36.053Z,9.00
2023-04-17T03:03:03.428Z,9.00
2023-04-17T03:05:30.660Z,9.00
2023-04-17T03:07:59.166Z,9.00
2023-04-17T03:10:26.088Z,9.00
2023-04-17T03:12:53.372Z,9.00
2023-04-17T03:15:20.319Z,9.00
2023-04-17T03:17:47.307Z,9.00
2023-04-17T03:20:16.065Z,9.00
2023-04-17T03:22:42.906Z,9.00
2023-04-17T03:25:10.264Z,9.00
2023-04-17T03:27:37.060Z,9.00
2023-04-17T03:30:04.089Z,9.00
2023-04-17T03:32:30.841Z,8.90
2023-04-17T03:34:57.618Z,8.90
2023-04-17T03:37:24.435Z,8.90
2023-04-17T03:39:51.158Z,8.90
2023-04-17T03:42:17.897Z,9.00
2023-04-17T03:44:44.625Z,8.90
2023-04-17T03:47:11.395Z,8.90
2023-04-17T03:49:38.222Z,8.90
2023-04-17T03:52:05.259Z,8.90
2023-04-17T03:54:35.424Z,8.90
2023-04-17T03:57:03.358Z,8.90
2023-04-17T03:59:33.435Z,8.90
2023-04-17T04:02:00.686Z,8.90
2023-04-17T04:04:27.824Z,8.90
2023-04-17T04:06:57.834Z,8.90
2023-04-17T04:09:27.831Z,8.90
2023-04-17T04:11:54.653Z,8.90
2023-04-17T04:14:21.426Z,8.90
2023-04-17T04:16:48.733Z,8.90
2023-04-17T04:19:15.522Z,8.90
2023-04-17T04:21:43.498Z,8.90
2023-04-17T04:24:10.385Z,8.90
2023-04-17T04:26:40.908Z,8.90
2023-04-17T04:29:08.892Z,8.90
2023-04-17T04:31:36.101Z,8.90
2023-04-17T04:34:02.986Z,8.90
2023-04-17T04:36:30.115Z,8.80
2023-04-17T04:39:00.915Z,8.90
2023-04-17T04:41:29.864Z,8.80
2023-04-17T04:43:56.690Z,8.80
2023-04-17T04:46:23.489Z,8.80
2023-04-17T04:48:50.216Z,8.80
2023-04-17T04:51:18.893Z,8.80
2023-04-17T04:53:46.081Z,8.80
2023-04-17T04:56:12.933Z,8.80
2023-04-17T04:58:39.729Z,8.80
2023-04-17T05:01:06.865Z,8.80
2023-04-17T05:03:34.066Z,8.80
2023-04-17T05:06:01.017Z,8.80
2023-04-17T05:08:28.084Z,8.80
2023-04-17T05:10:54.866Z,8.80
2023-04-17T05:13:21.625Z,8.80
2023-04-17T05:15:48.365Z,8.80
2023-04-17T05:18:15.395Z,8.80
2023-04-17T05:20:42.196Z,8.80
2023-04-17T05:23:08.956Z,8.80
2023-04-17T05:25:35.757Z,8.70
2023-04-17T05:28:02.543Z,8.80
2023-04-17T05:30:29.360Z,8.80
2023-04-17T05:32:56.215Z,8.80
2023-04-17T05:35:23.101Z,8.80
2023-04-17T05:37:50.010Z,8.80
2023-04-17T05:40:16.882Z,8.80
2023-04-17T05:42:43.717Z,8.70
2023-04-17T05:45:14.840Z,8.80
2023-04-17T05:47:41.972Z,8.80
2023-04-17T05:50:09.364Z,8.80
2023-04-17T05:52:38.828Z,8.80
2023-04-17T05:55:06.869Z,8.80
2023-04-17T05:57:33.684Z,8.80
2023-04-17T06:00:00.638Z,8.80
2023-04-17T06:02:28.077Z,8.80
2023-04-17T06:04:55.131Z,8.80
2023-04-17T06:07:22.158Z,8.80
2023-04-17T06:09:48.967Z,8.80
2023-04-17T06:12:17.141Z,8.80
2023-04-17T06:14:44.288Z,8.80
2023-04-17T06:17:12.339Z,8.80
2023-04-17T06:19:39.725Z,8.80
2023-04-17T06:22:06.586Z,8.80
2023-04-17T06:24:33.412Z,8.80
2023-04-17T06:27:00.194Z,8.80
2023-04-17T06:29:26.977Z,8.80
2023-04-17T06:31:53.696Z,8.80
2023-04-17T06:34:20.820Z,8.80
2023-04-17T06:36:48.270Z,8.80
2023-04-17T06:39:14.990Z,8.80
2023-04-17T06:41:41.739Z,8.80
2023-04-17T06:44:08.978Z,8.80
2023-04-17T06:46:35.910Z,8.80
2023-04-17T06:49:02.790Z,8.80
2023-04-17T06:51:29.555Z,8.80
2023-04-17T06:53:56.351Z,8.90
2023-04-17T06:56:24.213Z,8.90
2023-04-17T06:58:51.507Z,8.90
2023-04-17T07:01:18.338Z,8.90
2023-04-17T07:03:46.230Z,8.90
2023-04-17T07:06:13.071Z,8.90
2023-04-17T07:08:39.880Z,8.90
2023-04-17T07:11:06.817Z,8.90
2023-04-17T07:13:33.607Z,8.90
2023-04-17T07:16:01.409Z,8.90
2023-04-17T07:18:31.144Z,8.90
2023-04-17T07:20:57.955Z,9.00
2023-04-17T07:23:24.809Z,9.00
2023-04-17T07:25:51.597Z,9.00
2023-04-17T07:28:18.752Z,9.00
2023-04-17T07:30:45.564Z,9.00
2023-04-17T07:33:12.393Z,9.00
2023-04-17T07:35:39.541Z,9.00
2023-04-17T07:38:06.358Z,9.10
2023-04-17T07:40:35.769Z,9.10
2023-04-17T07:43:02.607Z,9.10
2023-04-17T07:45:29.454Z,9.10
2023-04-17T07:47:56.272Z,9.10
2023-04-17T07:50:23.633Z,9.10
2023-04-17T07:52:50.587Z,9.20
2023-04-17T07:55:17.409Z,9.20
2023-04-17T07:57:46.983Z,9.20
2023-04-17T08:00:14.742Z,9.20
2023-04-17T08:02:42.632Z,9.20
2023-04-17T08:05:12.352Z,9.20
2023-04-17T08:07:40.153Z,9.20
2023-04-17T08:10:07.302Z,9.30
2023-04-17T08:12:34.080Z,9.30
2023-04-17T08:15:00.825Z,9.30
2023-04-17T08:17:30.219Z,9.30
2023-04-17T08:20:02.257Z,9.30
2023-04-17T08:22:29.128Z,9.30
2023-04-17T08:24:58.868Z,9.30
2023-04-17T08:27:25.971Z,9.40
2023-04-17T08:29:53.661Z,9.40
2023-04-17T08:32:21.375Z,9.40
2023-04-17T08:34:48.255Z,9.60
2023-04-17T08:37:15.014Z,9.90
2023-04-17T08:39:41.792Z,10.00
2023-04-17T08:42:16.553Z,10.00
2023-04-17T08:44:44.502Z,10.00
2023-04-17T08:47:12.756Z,10.10
2023-04-17T08:49:43.303Z,10.00
2023-04-17T08:52:10.991Z,10.00
2023-04-17T08:54:38.900Z,10.00
2023-04-17T08:57:06.185Z,9.90
2023-04-17T08:59:33.099Z,10.00
2023-04-17T09:02:09.295Z,10.00
2023-04-17T09:04:38.258Z,10.00
2023-04-17T09:07:11.534Z,10.00
2023-04-17T09:09:47.987Z,10.00
2023-04-17T09:12:14.819Z,10.10
2023-04-17T09:14:41.684Z,10.10
2023-04-17T09:17:08.535Z,10.10
2023-04-17T09:19:35.496Z,10.10
2023-04-17T09:22:21.508Z,10.10
2023-04-17T09:24:48.660Z,10.20
2023-04-17T09:27:24.866Z,10.20
2023-04-17T09:30:05.978Z,10.20
2023-04-17T09:32:33.913Z,10.20
2023-04-17T09:35:02.568Z,10.20
2023-04-17T09:37:54.475Z,10.30
2023-04-17T09:40:22.546Z,10.30
2023-04-17T09:42:58.086Z,10.40
2023-04-17T09:45:26.163Z,10.40
2023-04-17T09:47:55.923Z,10.50
2023-04-17T09:50:24.951Z,10.50
2023-04-17T09:52:52.919Z,10.60
2023-04-17T09:55:24.627Z,10.60
2023-04-17T09:57:54.934Z,10.60
2023-04-17T10:00:23.950Z,10.70
2023-04-17T10:02:52.301Z,10.70
2023-04-17T10:05:30.267Z,10.70
2023-04-17T10:07:57.506Z,10.80
2023-04-17T10:10:25.491Z,10.80
2023-04-17T10:12:55.365Z,10.80
2023-04-17T10:15:23.557Z,10.80
2023-04-17T10:17:50.632Z,10.80
2023-04-17T10:20:20.361Z,10.90
2023-04-17T10:22:57.059Z,10.90
2023-04-17T10:25:25.877Z,11.00
2023-04-17T10:28:02.280Z,11.10
2023-04-17T10:30:54.931Z,11.10
2023-04-17T10:33:25.904Z,11.10
2023-04-17T10:35:53.212Z,11.20
2023-04-17T10:38:33.724Z,11.30
2023-04-17T10:41:04.609Z,11.40
2023-04-17T10:43:31.694Z,11.40
2023-04-17T10:46:10.856Z,11.50
2023-04-17T10:48:39.228Z,11.50
2023-04-17T10:51:21.539Z,11.60
2023-04-17T10:53:49.913Z,11.60
2023-04-17T10:56:42.509Z,11.60
2023-04-17T10:59:14.493Z,11.70
2023-04-17T11:01:47.886Z,11.70
2023-04-17T11:04:22.768Z,11.80
2023-04-17T11:06:52.603Z,11.80
2023-04-17T11:09:28.140Z,11.80
2023-04-17T11:11:58.740Z,11.90
2023-04-17T11:14:26.532Z,11.90
2023-04-17T11:16:53.358Z,11.90
2023-04-17T11:19:24.252Z,12.10
2023-04-17T11:21:52.552Z,12.10
2023-04-17T11:24:26.776Z,12.20
2023-04-17T11:26:54.467Z,12.20
2023-04-17T11:29:23.025Z,12.30
2023-04-17T11:31:52.707Z,12.30
2023-04-17T11:34:19.978Z,12.30
2023-04-17T11:36:53.730Z,12.30
2023-04-17T11:39:21.294Z,12.20
2023-04-17T11:41:49.505Z,12.30
2023-04-17T11:44:18.183Z,12.30
2023-04-17T11:46:54.609Z,12.40
2023-04-17T11:49:29.393Z,12.50
2023-04-17T11:52:00.637Z,12.50
2023-04-17T11:54:31.724Z,12.50
2023-04-17T11:57:00.071Z,12.60
2023-04-17T11:59:34.655Z,12.60
2023-04-17T12:02:02.447Z,12.60
2023-04-17T12:04:31.060Z,12.60
2023-04-17T12:06:59.705Z,12.70
2023-04-17T12:09:31.467Z,12.70
2023-04-17T12:11:59.177Z,12.80
2023-04-17T12:14:26.729Z,12.80
2023-04-17T12:16:53.615Z,12.90
2023-04-17T12:19:20.452Z,13.00
2023-04-17T12:21:52.419Z,13.00
2023-04-17T12:24:24.252Z,13.10
2023-04-17T12:26:51.727Z,13.10
2023-04-17T12:29:21.974Z,13.20
2023-04-17T12:31:56.506Z,13.20
2023-04-17T12:34:24.248Z,13.30
2023-04-17T12:36:52.180Z,13.50
2023-04-17T12:39:18.970Z,13.70
2023-04-17T12:41:45.719Z,13.80
2023-04-17T12:44:12.894Z,13.80
2023-04-17T12:46:39.889Z,13.90
2023-04-17T12:49:06.624Z,13.90
2023-04-17T12:51:37.650Z,14.00
2023-04-17T12:54:04.798Z,14.00
2023-04-17T12:56:31.939Z,14.10
2023-04-17T12:59:01.320Z,14.20
2023-04-17T13:01:29.750Z,14.30
2023-04-17T13:03:57.011Z,14.30
2023-04-17T13:06:24.176Z,14.30
2023-04-17T13:08:51.153Z,14.40
2023-04-17T13:11:17.968Z,14.50
2023-04-17T13:13:45.097Z,14.60
2023-04-17T13:16:11.942Z,14.70
2023-04-17T13:18:38.765Z,14.90
2023-04-17T13:21:05.980Z,14.90
2023-04-17T13:23:32.696Z,14.90
2023-04-17T13:25:59.576Z,14.90
2023-04-17T13:28:26.311Z,14.90
2023-04-17T13:30:53.200Z,14.90
2023-04-17T13:33:20.225Z,15.00
2023-04-17T13:35:47.183Z,15.20
2023-04-17T13:38:13.953Z,15.40
2023-04-17T13:40:40.974Z,15.60
2023-04-17T13:43:08.390Z,15.60
2023-04-17T13:45:35.270Z,15.60
2023-04-17T13:48:02.119Z,15.70
2023-04-17T13:50:28.980Z,15.90
2023-04-17T13:52:55.699Z,16.00
2023-04-17T13:55:22.445Z,16.10
2023-04-17T13:57:49.194Z,16.00
2023-04-17T14:00:18.253Z,16.00
2023-04-17T14:02:45.143Z,16.20
2023-04-17T14:05:12.287Z,16.40
2023-04-17T14:07:39.142Z,16.50
2023-04-17T14:10:06.833Z,16.30
2023-04-17T14:12:33.619Z,16.50
2023-04-17T14:15:00.435Z,16.60
2023-04-17T14:17:27.291Z,16.80
2023-04-17T14:19:54.185Z,16.90
2023-04-17T14:22:20.958Z,17.00
2023-04-17T14:24:47.715Z,17.20
2023-04-17T14:27:14.466Z,17.40
2023-04-17T14:29:41.278Z,17.40
2023-04-17T14:32:08.598Z,17.30
2023-04-17T14:34:35.387Z,17.30
2023-04-17T14:37:02.167Z,17.50
2023-04-17T14:39:31.279Z,17.50
2023-04-17T14:42:01.296Z,17.50
2023-04-17T14:44:28.799Z,17.30
2023-04-17T14:46:57.000Z,17.30
2023-04-17T14:49:24.099Z,17.50
2023-04-17T14:51:51.131Z,17.70
2023-04-17T14:54:17.915Z,17.80
2023-04-17T14:56:44.652Z,17.90
2023-04-17T14:59:12.062Z,17.90
2023-04-17T15:01:39.192Z,17.70
2023-04-17T15:04:06.385Z,17.70
2023-04-17T15:06:33.498Z,17.60
2023-04-17T15:09:00.302Z,17.80
2023-04-17T15:11:27.050Z,18.00
2023-04-17T15:13:53.781Z,18.20
2023-04-17T15:16:20.679Z,18.40
2023-04-17T15:18:47.968Z,18.70
2023-04-17T15:21:16.001Z,18.70
2023-04-17T15:23:42.825Z,18.50
2023-04-17T15:26:09.625Z,18.40
2023-04-17T15:28:36.910Z,18.50
2023-04-17T15:31:03.670Z,18.60
2023-04-17T15:33:30.523Z,18.60
2023-04-17T15:35:58.635Z,18.60
2023-04-17T15:38:26.030Z,18.80
2023-04-17T15:40:53.371Z,18.90
2023-04-17T15:43:20.893Z,19.10
2023-04-17T15:45:51.696Z,19.00
2023-04-17T15:48:18.468Z,19.10
2023-04-17T15:50:45.400Z,19.10
2023-04-17T15:53:13.205Z,19.10
2023-04-17T15:55:41.209Z,19.00
2023-04-17T15:58:08.424Z,19.00
2023-04-17T16:00:35.253Z,18.90
2023-04-17T16:03:02.296Z,18.90
2023-04-17T16:05:29.797Z,18.90
2023-04-17T16:07:56.566Z,19.00
2023-04-17T16:10:23.604Z,19.10
2023-04-17T16:12:50.367Z,19.00
2023-04-17T16:15:17.623Z,19.00
2023-04-17T16:17:45.656Z,19.10
2023-04-17T16:20:13.004Z,19.10
2023-04-17T16:22:39.832Z,19.10
2023-04-17T16:25:06.947Z,19.30
2023-04-17T16:27:34.234Z,19.40
2023-04-17T16:30:02.346Z,19.50
2023-04-17T16:32:29.308Z,19.60
2023-04-17T16:34:56.131Z,19.70
2023-04-17T16:37:22.885Z,19.80
2023-04-17T16:39:50.834Z,19.90
2023-04-17T16:42:17.941Z,20.00
2023-04-17T16:44:48.076Z,20.00
2023-04-17T16:47:15.081Z,20.00
2023-04-17T16:49:42.691Z,20.10
2023-04-17T16:52:09.797Z,19.90
2023-04-17T16:54:36.562Z,19.70
2023-04-17T16:57:03.567Z,19.50
2023-04-17T16:59:30.470Z,19.50
2023-04-17T17:01:57.942Z,19.30
2023-04-17T17:04:25.621Z,19.30
2023-04-17T17:06:52.457Z,19.20
2023-04-17T17:09:20.484Z,19.30
2023-04-17T17:11:47.518Z,19.20
2023-04-17T17:14:16.105Z,19.20
2023-04-17T17:16:43.095Z,19.20
2023-04-17T17:19:09.929Z,19.10
2023-04-17T17:21:36.701Z,19.20
2023-04-17T17:24:03.740Z,19.20
2023-04-17T17:26:30.551Z,19.10
2023-04-17T17:28:57.342Z,19.10
2023-04-17T17:31:24.288Z,19.00
2023-04-17T17:33:53.833Z,19.10
2023-04-17T17:36:21.848Z,19.00
2023-04-17T17:38:55.521Z,19.10
2023-04-17T17:41:26.505Z,19.10
2023-04-17T17:43:56.110Z,19.10
2023-04-17T17:46:24.422Z,19.00
2023-04-17T17:48:51.430Z,18.90
2023-04-17T17:51:18.229Z,18.80
2023-04-17T17:53:45.027Z,18.80
2023-04-17T17:56:11.794Z,18.80
2023-04-17T17:58:38.851Z,18.80
2023-04-17T18:01:06.831Z,18.70
2023-04-17T18:03:35.371Z,18.70
2023-04-17T18:06:02.325Z,18.40
2023-04-17T18:08:29.099Z,18.50
2023-04-17T18:10:55.853Z,18.30
2023-04-17T18:13:22.840Z,18.30
2023-04-17T18:15:49.675Z,18.20
2023-04-17T18:18:16.477Z,18.20
2023-04-17T18:20:43.437Z,18.00
2023-04-17T18:23:10.305Z,18.00
2023-04-17T18:25:37.579Z,17.90
2023-04-17T18:28:04.942Z,17.70
2023-04-17T18:30:31.755Z,17.80
2023-04-17T18:32:58.536Z,17.60
2023-04-17T18:35:25.347Z,17.40
2023-04-17T18:37:53.077Z,17.30
2023-04-17T18:40:19.879Z,17.30
2023-04-17T18:42:46.612Z,17.10
2023-04-17T18:45:15.789Z,17.10
2023-04-17T18:47:42.840Z,17.10
2023-04-17T18:50:10.132Z,16.90
2023-04-17T18:52:42.089Z,16.80
2023-04-17T18:55:11.437Z,16.80
2023-04-17T18:57:38.431Z,16.80
2023-04-17T19:00:05.892Z,16.60
2023-04-17T19:02:32.816Z,16.60
2023-04-17T19:04:59.738Z,16.40
2023-04-17T19:07:26.595Z,16.50
2023-04-17T19:09:53.396Z,16.60
2023-04-17T19:12:20.284Z,16.80
2023-04-17T19:14:47.008Z,16.70
2023-04-17T19:17:13.901Z,16.70
2023-04-17T19:19:40.713Z,16.60
2023-04-17T19:22:07.468Z,16.60
2023-04-17T19:24:34.227Z,16.60
2023-04-17T19:27:01.936Z,16.50
2023-04-17T19:29:28.724Z,16.40
2023-04-17T19:31:55.668Z,16.20
2023-04-17T19:34:22.521Z,16.20
2023-04-17T19:36:49.302Z,16.20
2023-04-17T19:39:16.249Z,16.20
2023-04-17T19:41:46.010Z,16.00
2023-04-17T19:44:14.323Z,16.00
2023-04-17T19:46:41.267Z,16.00
2023-04-17T19:49:08.029Z,15.80
2023-04-17T19:51:34.815Z,15.70
2023-04-17T19:54:01.684Z,15.60
2023-04-17T19:56:28.485Z,15.60
2023-04-17T19:58:58.165Z,15.60
2023-04-17T20:01:25.315Z,15.50
2023-04-17T20:03:52.189Z,15.40
2023-04-17T20:06:19.551Z,15.30
2023-04-17T20:08:46.442Z,15.30
2023-04-17T20:11:15.527Z,15.20
2023-04-17T20:13:42.564Z,15.20
2023-04-17T20:16:09.350Z,15.00
2023-04-17T20:18:37.382Z,14.90
2023-04-17T20:21:05.874Z,14.80
2023-04-17T20:23:32.684Z,14.80
2023-04-17T20:25:59.426Z,14.70
2023-04-17T20:28:28.868Z,14.60
2023-04-17T20:30:55.949Z,14.50
2023-04-17T20:33:22.806Z,14.50
2023-04-17T20:35:49.600Z,14.40
2023-04-17T20:38:16.396Z,14.30
2023-04-17T20:40:43.372Z,14.50
2023-04-17T20:43:10.148Z,14.50
2023-04-17T20:45:37.249Z,14.40
2023-04-17T20:48:04.241Z,14.40
2023-04-17T20:50:31.107Z,14.40
2023-04-17T20:52:57.820Z,14.40
2023-04-17T20:55:24.669Z,14.30
2023-04-17T20:57:51.393Z,14.20
2023-04-17T21:00:18.166Z,14.30
2023-04-17T21:02:45.127Z,14.20
2023-04-17T21:05:11.962Z,14.10
2023-04-17T21:07:38.810Z,14.00
2023-04-17T21:10:06.299Z,13.90
2023-04-17T21:12:35.036Z,13.90
2023-04-17T21:15:02.030Z,13.90
2023-04-17T21:17:28.843Z,13.80
2023-04-17T21:19:56.228Z,13.70
2023-04-17T21:22:23.039Z,13.60
2023-04-17T21:24:49.817Z,13.60
2023-04-17T21:27:16.793Z,13.50
2023-04-17T21:29:43.557Z,13.50
2023-04-17T21:32:10.402Z,13.40
2023-04-17T21:34:37.148Z,13.30
2023-04-17T21:37:04.927Z,13.30
2023-04-17T21:39:33.232Z,13.20
2023-04-17T21:42:00.891Z,13.20
2023-04-17T21:44:28.216Z,13.10
2023-04-17T21:46:54.982Z,13.10
2023-04-17T21:49:22.672Z,13.00
2023-04-17T21:51:49.450Z,12.90
2023-04-17T21:54:16.705Z,12.90
2023-04-17T21:56:43.514Z,12.90
2023-04-17T21:59:10.292Z,12.80
2023-04-17T22:01:37.148Z,12.80
2023-04-17T22:04:04.130Z,12.80
2023-04-17T22:06:30.947Z,12.70
2023-04-17T22:08:57.661Z,12.70
2023-04-17T22:11:24.407Z,12.60
2023-04-17T22:13:51.147Z,12.50
2023-04-17T22:16:17.925Z,12.40
2023-04-17T22:18:44.764Z,12.40
2023-04-17T22:21:12.541Z,12.40
2023-04-17T22:23:39.261Z,12.30
2023-04-17T22:26:06.091Z,12.30
2023-04-17T22:28:32.844Z,12.20
2023-04-17T22:30:59.734Z,12.10
2023-04-17T22:33:26.601Z,12.10
2023-04-17T22:35:53.392Z,12.00
2023-04-17T22:38:21.271Z,12.00
2023-04-17T22:40:48.156Z,12.00
2023-04-17T22:43:15.095Z,12.00
2023-04-17T22:45:41.882Z,12.00
2023-04-17T22:48:08.939Z,11.90
2023-04-17T22:50:37.595Z,11.80
2023-04-17T22:53:04.382Z,11.80
2023-04-17T22:55:31.193Z,11.70
2023-04-17T22:57:57.965Z,11.70
2023-04-17T23:00:25.452Z,11.70
2023-04-17T23:02:52.554Z,11.70
2023-04-17T23:05:19.637Z,11.60
2023-04-17T23:07:46.470Z,11.60
2023-04-17T23:10:13.284Z,11.60
2023-04-17T23:12:40.021Z,11.50
2023-04-17T23:15:08.361Z,11.50
2023-04-17T23:17:35.237Z,11.40
2023-04-17T23:20:01.978Z,11.40
2023-04-17T23:22:28.751Z,11.40
2023-04-17T23:24:56.938Z,11.30
2023-04-17T23:27:23.718Z,11.20
2023-04-17T23:29:50.551Z,11.10
2023-04-17T23:32:17.323Z,11.10
2023-04-17T23:34:44.045Z,11.00
2023-04-17T23:37:10.985Z,11.00
2023-04-17T23:39:37.824Z,10.90
2023-04-17T23:42:07.233Z,10.90
2023-04-17T23:44:37.161Z,11.00
2023-04-17T23:47:04.395Z,10.90
2023-04-17T23:49:31.228Z,10.80
2023-04-17T23:51:57.959Z,10.80
2023-04-17T23:54:24.796Z,10.80
2023-04-17T23:56:51.550Z,10.80
2023-04-17T23:59:18.305Z,10.70
